Details From EDDH - Hamburg Fulsbuettel
To EDDB - Berlin Schoenefeld
Flight Number -
Tags Routegen Generated
Created
Modified
Stats Distance 151 nm / 280 km
Max Altitude 1,800 ft / 549 m
Waypoints 5
Social Downloads 33
Likes 0
Share

Download

Looking for another format? Having issues loading an existing format? Contact us
Advertisement - Login to hide

Notes

Departing runway 15 EDDH. Arriving runway 6 EDDB.

Route

EDDH +53.56_+010.06 +53.11_+011.27 +52.32_+013.26 EDDB

ID Type Via Altitude (ft/m) Position (lat/lon) Dist (leg/tot) Name
O EDDH APT - 1,800 / 549 53.62513 / 10.00052 - / 0 nm
+53.56_+010.06 DME - 1,800 / 549 53.56071 / 10.05607 4 / 4 nm
+53.11_+011.27 DME - 1,800 / 549 53.10621 / 11.27004 51 / 55 nm
+52.32_+013.26 DME - 1,800 / 549 52.31511 / 13.26432 86 / 142 nm
O EDDB APT - 0 / 0 52.36769 / 13.48503 8 / 151 nm

Altitude Profile

Advertisement - Login to hide

EDDH

Details ICAO EDDH (HAM)
Name Hamburg International Airport
Region Germany - Civil
Timezone Europe/Berlin (UTC+2.0)
Stats Elevation 53 ft / 16 m (AMSL)
Location 53.633700° 9.985260°
Runways 2
Magnetic Variation 3.281° E

METAR

EDDH 160050Z 32003KT CAVOK 09/08 Q1019 NOSIG

Decode

TAF

TAF EDDH 152300Z 1600/1706 VRB03KT CAVOK BECMG 1606/1608 14007KT TEMPO 1617/1621 07006KT

Decode

Departure Runways

ID Width Length Bearing (true/mag) Surface Threshold Overrun Markings Lighting
05 151 ft / 46 m 10,647 ft / 3,245 m 50.18° / 46.90° ASPHALT 978 ft / 298 m 194 ft / 59 m PREC-APP CENTERLINE EDGE THRESHOLD ALSF-I REIL-OMNI
15 151 ft / 46 m 12,013 ft / 3,662 m 152.89° / 149.61° ASPHALT 0 ft / 0 m 194 ft / 59 m PREC-APP CENTERLINE EDGE THRESHOLD ALSF-I REIL-OMNI
23 151 ft / 46 m 10,647 ft / 3,245 m 230.22° / 226.93° ASPHALT 509 ft / 155 m 239 ft / 73 m PREC-APP CENTERLINE EDGE THRESHOLD ALSF-II TDZ REIL-OMNI
33 151 ft / 46 m 12,013 ft / 3,662 m 332.91° / 329.63° ASPHALT 1,463 ft / 446 m 164 ft / 50 m APP CENTERLINE EDGE THRESHOLD ALSF-I REIL-OMNI

EDDB

Details ICAO EDDB (SXF)
Name Berlin Brandenburg International Willy Brandt
Region Germany - Civil
Timezone Europe/Berlin (UTC+2.0)
Stats Elevation 157 ft / 48 m (AMSL)
Location 52.362300° 13.500700°
Runways 2
Magnetic Variation 4.268° E

METAR

EDDB 160050Z 07006KT CAVOK 12/08 Q1020 NOSIG

Decode

TAF

TAF EDDB 152303Z 1600/1624 05004KT CAVOK= TAF EDDE 152300Z 1600/1624 03004KT CAVOK BECMG 1608/1610 09006KT

Decode

Destination Runways

ID Width Length Bearing (true/mag) Surface Threshold Overrun Markings Lighting
07L 148 ft / 45 m 11,780 ft / 3,591 m 68.75° / 64.48° ASPHALT 981 ft / 299 m 0 ft / 0 m PREC-APP CENTERLINE EDGE THRESHOLD ALSF-II TDZ REIL-OMNI
07R 197 ft / 60 m 13,088 ft / 3,989 m 68.74° / 64.47° CONCRETE 0 ft / 0 m 0 ft / 0 m PREC-APP CENTERLINE EDGE THRESHOLD ALSF-II TDZ
25L 197 ft / 60 m 13,088 ft / 3,989 m 248.78° / 244.52° CONCRETE 0 ft / 0 m 0 ft / 0 m PREC-APP CENTERLINE EDGE THRESHOLD ALSF-II TDZ
25R 148 ft / 45 m 11,780 ft / 3,591 m 248.79° / 244.52° ASPHALT 981 ft / 299 m 0 ft / 0 m PREC-APP CENTERLINE EDGE THRESHOLD ALSF-II TDZ REIL-OMNI

Approach Navaids

Runway Type Ident Frequency Range Bearing (true/mag) Slope Elevation
07L GS IBNE 110.70 MHz 10 nm / 19 km 68.77° / 64.50 ° 3.00° 157 ft / 48 m (AMSL)
07L LOC-ILS IBNE 110.70 MHz 18 nm / 33 km 68.77° / 64.50 ° - 157 ft / 48 m (AMSL)
07L MM MM - - 68.77° / 64.50 ° - 157 ft / 48 m (AMSL)
07R GS IBSE 109.70 MHz 10 nm / 19 km 68.77° / 64.50 ° 3.00° 157 ft / 48 m (AMSL)
07R LOC-ILS IBSE 109.70 MHz 18 nm / 33 km 68.77° / 64.50 ° - 157 ft / 48 m (AMSL)
25L GS IBSW 109.50 MHz 10 nm / 19 km 248.77° / 244.50 ° 3.00° 157 ft / 48 m (AMSL)
25L LOC-ILS IBSW 109.50 MHz 18 nm / 33 km 248.77° / 244.50 ° - 157 ft / 48 m (AMSL)
25R LOC-ILS IBNW 109.90 MHz 18 nm / 33 km 248.77° / 244.50 ° - 157 ft / 48 m (AMSL)
25R MM MM - - 248.77° / 244.50 ° - 157 ft / 48 m (AMSL)
25R GS IBNW 109.90 MHz 10 nm / 19 km 248.77° / 244.50 ° 3.00° 157 ft / 48 m (AMSL)

Popular Alternatives